createdAt,value
2022-09-26T00:01:36.063Z,10.95
2022-09-26T00:04:08.049Z,11.35
2022-09-26T00:06:36.093Z,5.80
2022-09-26T00:09:04.740Z,7.68
2022-09-26T00:11:35.423Z,9.80
2022-09-26T00:14:06.357Z,7.97
2022-09-26T00:16:34.647Z,8.32
2022-09-26T00:19:03.041Z,7.57
2022-09-26T00:21:31.695Z,10.00
2022-09-26T00:24:00.790Z,7.13
2022-09-26T00:26:31.047Z,6.65
2022-09-26T00:29:04.423Z,6.53
2022-09-26T00:31:34.470Z,6.63
2022-09-26T00:34:03.160Z,7.97
2022-09-26T00:36:38.004Z,6.38
2022-09-26T00:39:07.889Z,5.65
2022-09-26T00:41:37.534Z,7.95
2022-09-26T00:44:37.955Z,5.80
2022-09-26T00:47:08.369Z,9.52
2022-09-26T00:49:38.643Z,4.63
2022-09-26T00:52:11.059Z,7.97
2022-09-26T00:54:41.663Z,11.05
2022-09-26T00:57:13.231Z,6.90
2022-09-26T00:59:46.543Z,6.38
2022-09-26T01:02:15.670Z,6.03
2022-09-26T01:04:46.975Z,6.10
2022-09-26T01:07:19.185Z,13.38
2022-09-26T01:09:49.037Z,6.10
2022-09-26T01:12:17.756Z,7.53
2022-09-26T01:14:48.640Z,9.23
2022-09-26T01:17:17.635Z,4.82
2022-09-26T01:19:57.889Z,6.07
2022-09-26T01:22:58.595Z,7.15
2022-09-26T01:25:39.828Z,6.65
2022-09-26T01:28:30.697Z,7.43
2022-09-26T01:31:05.340Z,5.50
2022-09-26T01:33:46.379Z,7.60
2022-09-26T01:36:32.016Z,5.53
2022-09-26T01:39:11.728Z,7.07
2022-09-26T01:41:49.189Z,8.43
2022-09-26T01:44:34.792Z,8.35
2022-09-26T01:47:13.906Z,6.47
2022-09-26T01:49:53.416Z,5.15
2022-09-26T01:52:29.027Z,4.00
2022-09-26T01:55:03.199Z,7.20
2022-09-26T01:57:35.312Z,6.03
2022-09-26T02:00:07.504Z,6.75
2022-09-26T02:02:46.906Z,5.85
2022-09-26T02:05:23.366Z,4.63
2022-09-26T02:07:56.450Z,5.60
2022-09-26T02:10:28.526Z,5.35
2022-09-26T02:13:03.882Z,6.78
2022-09-26T02:15:34.630Z,10.27
2022-09-26T02:18:16.167Z,8.45
2022-09-26T02:20:49.821Z,5.22
2022-09-26T02:23:18.426Z,8.90
2022-09-26T02:25:46.697Z,6.03
2022-09-26T02:28:16.193Z,6.95
2022-09-26T02:30:46.869Z,6.03
2022-09-26T02:33:17.301Z,3.35
2022-09-26T02:35:57.769Z,5.57
2022-09-26T02:38:31.900Z,8.30
2022-09-26T02:41:35.090Z,6.45
2022-09-26T02:44:24.382Z,7.07
2022-09-26T02:47:31.943Z,6.47
2022-09-26T02:50:15.750Z,6.15
2022-09-26T02:52:56.834Z,6.75
2022-09-26T02:55:45.155Z,8.30
2022-09-26T02:58:20.557Z,8.02
2022-09-26T03:01:00.777Z,5.30
2022-09-26T03:03:34.848Z,5.28
2022-09-26T03:06:07.757Z,6.95
2022-09-26T03:08:40.356Z,7.90
2022-09-26T03:14:00.096Z,7.13
2022-09-26T03:16:33.068Z,6.70
2022-09-26T03:19:07.002Z,4.63
2022-09-26T03:21:37.373Z,6.22
2022-09-26T03:24:07.020Z,6.68
2022-09-26T03:26:36.693Z,7.43
2022-09-26T03:29:04.880Z,4.80
2022-09-26T03:31:36.435Z,5.63
2022-09-26T03:36:41.511Z,5.85
2022-09-26T03:39:11.632Z,5.80
2022-09-26T03:41:44.323Z,7.65
2022-09-26T03:47:17.303Z,3.85
2022-09-26T03:49:49.621Z,7.38
2022-09-26T03:52:19.137Z,5.22
2022-09-26T03:54:49.474Z,10.10
2022-09-26T03:57:18.663Z,5.15
2022-09-26T04:00:09.137Z,4.43
2022-09-26T04:02:47.257Z,5.57
2022-09-26T04:05:29.471Z,10.93
2022-09-26T04:08:00.406Z,5.75
2022-09-26T04:10:28.492Z,6.85
2022-09-26T04:12:58.075Z,9.52
2022-09-26T04:15:26.926Z,8.75
2022-09-26T04:18:05.737Z,4.35
2022-09-26T04:20:33.935Z,7.45
2022-09-26T04:23:03.356Z,11.68
2022-09-26T04:25:31.734Z,16.95
2022-09-26T04:27:59.796Z,16.10
2022-09-26T04:30:29.804Z,13.38
2022-09-26T04:33:01.628Z,9.87
2022-09-26T04:35:48.867Z,5.85
2022-09-26T04:38:18.705Z,8.35
2022-09-26T04:40:47.053Z,12.18
2022-09-26T04:43:15.342Z,9.30
2022-09-26T04:45:44.235Z,6.93
2022-09-26T04:48:13.949Z,10.52
2022-09-26T04:50:44.596Z,7.72
2022-09-26T04:53:13.264Z,9.85
2022-09-26T04:55:50.533Z,5.43
2022-09-26T04:58:18.755Z,6.15
2022-09-26T05:00:50.028Z,5.47
2022-09-26T05:03:44.365Z,7.40
2022-09-26T05:06:14.797Z,7.43
2022-09-26T05:08:45.993Z,7.93
2022-09-26T05:11:17.317Z,7.43
2022-09-26T05:13:48.093Z,6.72
2022-09-26T05:16:19.589Z,8.10
2022-09-26T05:18:51.650Z,9.13
2022-09-26T05:21:20.120Z,5.07
2022-09-26T05:24:05.567Z,6.50
2022-09-26T05:26:41.729Z,8.40
2022-09-26T05:29:12.014Z,4.65
2022-09-26T05:31:53.996Z,10.10
2022-09-26T05:34:26.215Z,5.72
2022-09-26T05:36:56.013Z,6.68
2022-09-26T05:39:42.759Z,6.35
2022-09-26T05:42:15.299Z,8.10
2022-09-26T05:44:44.358Z,7.00
2022-09-26T05:47:13.233Z,7.35
2022-09-26T05:49:41.639Z,8.40
2022-09-26T05:52:12.970Z,8.05
2022-09-26T05:54:40.982Z,4.72
2022-09-26T05:57:30.403Z,6.53
2022-09-26T05:59:59.150Z,8.10
2022-09-26T06:02:27.306Z,7.60
2022-09-26T06:05:32.312Z,7.75
2022-09-26T06:08:17.377Z,5.60
2022-09-26T06:11:07.555Z,6.97
2022-09-26T06:13:38.824Z,8.02
2022-09-26T06:16:11.708Z,8.30
2022-09-26T06:18:40.725Z,10.32
2022-09-26T06:21:10.904Z,7.55
2022-09-26T06:23:39.593Z,8.95
2022-09-26T06:26:15.760Z,6.70
2022-09-26T06:28:45.818Z,9.18
2022-09-26T06:31:16.052Z,7.65
2022-09-26T06:34:19.279Z,9.48
2022-09-26T06:37:08.619Z,6.10
2022-09-26T06:39:36.928Z,8.07
2022-09-26T06:42:07.556Z,6.85
2022-09-26T06:44:38.726Z,8.60
2022-09-26T06:47:25.079Z,7.15
2022-09-26T06:50:31.508Z,9.90
2022-09-26T06:53:10.689Z,8.35
2022-09-26T06:55:38.929Z,11.30
2022-09-26T06:58:06.933Z,8.80
2022-09-26T07:00:50.497Z,8.30
2022-09-26T07:03:45.438Z,10.40
2022-09-26T07:06:49.022Z,7.13
2022-09-26T07:09:17.855Z,7.43
2022-09-26T07:12:13.566Z,9.65
2022-09-26T07:14:40.376Z,8.55
2022-09-26T07:17:22.119Z,9.30
2022-09-26T07:20:11.091Z,14.20
2022-09-26T07:23:04.067Z,10.70
2022-09-26T07:25:33.609Z,10.23
2022-09-26T07:28:03.496Z,10.00
2022-09-26T07:30:41.893Z,9.00
2022-09-26T07:33:25.263Z,9.95
2022-09-26T07:35:56.881Z,6.82
2022-09-26T07:38:25.833Z,8.65
2022-09-26T07:40:55.480Z,9.10
2022-09-26T07:43:42.498Z,9.43
2022-09-26T07:46:29.914Z,8.05
2022-09-26T07:49:17.283Z,10.02
2022-09-26T07:51:48.609Z,8.68
2022-09-26T07:54:20.867Z,12.00
2022-09-26T07:57:08.025Z,10.65
2022-09-26T07:59:54.445Z,9.70
2022-09-26T08:02:45.701Z,10.10
2022-09-26T08:05:19.929Z,6.57
2022-09-26T08:07:49.760Z,7.10
2022-09-26T08:10:47.277Z,6.55
2022-09-26T08:13:15.559Z,9.50
2022-09-26T08:15:55.950Z,7.45
2022-09-26T08:18:29.981Z,5.25
2022-09-26T08:21:00.464Z,8.60
2022-09-26T08:23:29.784Z,9.27
2022-09-26T08:26:43.882Z,7.25
2022-09-26T08:29:23.611Z,6.60
2022-09-26T08:31:55.036Z,7.07
2022-09-26T08:34:25.493Z,9.30
2022-09-26T08:37:18.658Z,8.52
2022-09-26T08:40:06.888Z,19.95
2022-09-26T08:43:04.683Z,7.60
2022-09-26T08:46:31.981Z,6.18
2022-09-26T08:49:50.539Z,5.22
2022-09-26T08:52:30.919Z,11.32
2022-09-26T08:55:04.107Z,8.63
2022-09-26T08:57:38.516Z,7.82
2022-09-26T09:00:15.429Z,5.82
2022-09-26T09:02:50.883Z,7.93
2022-09-26T09:05:24.551Z,5.88
2022-09-26T09:07:58.756Z,11.55
2022-09-26T09:10:42.732Z,9.50
2022-09-26T09:13:53.019Z,7.22
2022-09-26T09:16:53.643Z,7.25
2022-09-26T09:19:53.744Z,7.38
2022-09-26T09:22:56.894Z,9.27
2022-09-26T09:25:33.074Z,5.97
2022-09-26T09:28:14.876Z,9.23
2022-09-26T09:30:47.682Z,6.57
2022-09-26T09:33:34.063Z,8.82
2022-09-26T09:36:27.882Z,9.30
2022-09-26T09:39:29.711Z,8.32
2022-09-26T09:42:07.728Z,5.68
2022-09-26T09:44:46.912Z,7.35
2022-09-26T09:47:17.717Z,7.13
2022-09-26T09:49:48.888Z,6.78
2022-09-26T09:52:32.482Z,16.42
2022-09-26T09:55:12.491Z,5.82
2022-09-26T09:58:08.459Z,8.98
2022-09-26T10:00:44.830Z,8.85
2022-09-26T10:03:34.930Z,8.55
2022-09-26T10:06:05.685Z,7.50
2022-09-26T10:08:41.297Z,10.98
2022-09-26T10:11:24.032Z,9.70
2022-09-26T10:14:16.980Z,8.43
2022-09-26T10:17:22.867Z,9.25
2022-09-26T10:20:35.793Z,10.02
2022-09-26T10:23:10.218Z,13.20
2022-09-26T10:25:38.487Z,13.20
2022-09-26T10:28:08.049Z,8.50
2022-09-26T10:30:48.848Z,9.30
2022-09-26T10:33:26.700Z,12.13
2022-09-26T10:36:19.768Z,12.52
2022-09-26T10:39:12.170Z,10.02
2022-09-26T10:41:42.391Z,12.65
2022-09-26T10:44:34.076Z,14.07
2022-09-26T10:47:14.735Z,18.02
2022-09-26T10:50:06.064Z,23.30
2022-09-26T10:53:04.103Z,15.93
2022-09-26T10:55:39.478Z,16.48
2022-09-26T10:58:13.901Z,19.52
2022-09-26T11:00:48.846Z,16.45
2022-09-26T11:03:22.813Z,17.38
2022-09-26T11:06:24.154Z,14.93
2022-09-26T11:08:58.926Z,16.88
2022-09-26T11:11:48.006Z,15.38
2022-09-26T11:14:28.318Z,13.50
2022-09-26T11:17:03.877Z,15.23
2022-09-26T11:19:42.715Z,11.77
2022-09-26T11:22:18.483Z,15.52
2022-09-26T11:37:04.744Z,9.93
2022-09-26T11:39:54.116Z,13.13
2022-09-26T11:42:35.581Z,14.35
2022-09-26T11:45:11.418Z,8.30
2022-09-26T11:48:13.574Z,9.80
2022-09-26T11:51:12.746Z,9.48
2022-09-26T11:54:09.519Z,10.60
2022-09-26T11:56:55.237Z,7.00
2022-09-26T11:59:44.394Z,8.63
2022-09-26T12:02:32.297Z,7.28
2022-09-26T12:05:17.411Z,9.20
2022-09-26T12:07:54.235Z,6.88
2022-09-26T12:10:36.153Z,8.43
2022-09-26T12:13:16.392Z,7.43
2022-09-26T12:15:56.235Z,6.72
2022-09-26T12:18:35.421Z,8.82
2022-09-26T12:21:14.805Z,9.98
2022-09-26T12:23:51.249Z,10.60
2022-09-26T12:26:24.225Z,14.48
2022-09-26T12:29:14.395Z,11.50
2022-09-26T12:32:14.548Z,11.30
2022-09-26T12:35:11.585Z,12.18
2022-09-26T12:37:58.282Z,11.90
2022-09-26T12:40:38.192Z,12.57
2022-09-26T12:43:24.387Z,15.60
2022-09-26T12:46:09.909Z,13.38
2022-09-26T12:48:54.030Z,15.20
2022-09-26T12:51:35.362Z,15.80
2022-09-26T12:54:33.021Z,13.35
2022-09-26T12:57:08.165Z,16.02
2022-09-26T12:59:54.512Z,10.82
2022-09-26T13:02:52.763Z,24.27
2022-09-26T13:05:39.130Z,12.65
2022-09-26T13:08:16.639Z,15.73
2022-09-26T13:11:01.597Z,14.95
2022-09-26T13:13:45.306Z,12.63
2022-09-26T13:16:31.694Z,20.02
2022-09-26T13:19:07.218Z,14.65
2022-09-26T13:21:45.378Z,15.75
2022-09-26T13:24:20.722Z,15.95
2022-09-26T13:26:55.307Z,19.35
2022-09-26T13:29:30.395Z,16.30
2022-09-26T13:32:12.645Z,15.82
2022-09-26T13:34:45.442Z,15.95
2022-09-26T13:37:28.967Z,16.90
2022-09-26T13:40:08.188Z,25.48
2022-09-26T13:42:43.101Z,19.40
2022-09-26T13:45:23.906Z,18.15
2022-09-26T13:47:58.727Z,16.13
2022-09-26T13:50:34.997Z,15.00
2022-09-26T13:53:15.950Z,23.05
2022-09-26T13:55:44.878Z,18.10
2022-09-26T13:58:25.293Z,19.15
2022-09-26T14:00:55.225Z,23.20
2022-09-26T14:03:43.605Z,20.50
2022-09-26T14:06:31.308Z,26.27
2022-09-26T14:09:29.392Z,21.08
2022-09-26T14:12:33.227Z,16.80
2022-09-26T14:15:22.657Z,20.50
2022-09-26T14:18:26.480Z,23.00
2022-09-26T14:21:15.539Z,19.95
2022-09-26T14:23:46.332Z,21.92
2022-09-26T14:26:18.998Z,16.73
2022-09-26T14:28:55.735Z,19.27
2022-09-26T14:32:00.905Z,22.52
2022-09-26T14:34:35.500Z,21.63
2022-09-26T14:39:41.545Z,20.73
2022-09-26T14:42:12.037Z,30.27
2022-09-26T14:44:57.599Z,20.45
2022-09-26T14:47:27.489Z,20.85
2022-09-26T14:50:02.629Z,22.90
2022-09-26T14:52:31.593Z,23.92
2022-09-26T14:55:02.529Z,19.27
2022-09-26T14:57:34.177Z,24.25
2022-09-26T15:00:03.471Z,22.08
2022-09-26T15:02:40.818Z,20.75
2022-09-26T15:05:25.755Z,24.48
2022-09-26T15:07:56.914Z,19.77
2022-09-26T15:10:40.047Z,23.55
2022-09-26T15:13:23.633Z,22.27
2022-09-26T15:15:57.327Z,21.60
2022-09-26T15:18:34.769Z,22.63
2022-09-26T15:21:16.261Z,24.08
2022-09-26T15:23:50.498Z,24.52
2022-09-26T15:26:22.091Z,29.65
2022-09-26T15:28:53.169Z,23.92
2022-09-26T15:31:28.139Z,23.90
2022-09-26T15:34:02.131Z,30.50
2022-09-26T15:36:34.628Z,27.70
2022-09-26T15:39:08.391Z,26.02
2022-09-26T15:42:03.907Z,31.60
2022-09-26T15:44:35.903Z,30.30
2022-09-26T15:47:27.215Z,30.10
2022-09-26T15:50:10.198Z,30.90
2022-09-26T15:52:44.251Z,27.92
2022-09-26T15:55:19.281Z,31.75
2022-09-26T15:57:49.590Z,29.67
2022-09-26T16:00:18.730Z,26.92
2022-09-26T16:02:48.437Z,27.85
2022-09-26T16:05:17.212Z,28.02
2022-09-26T16:07:51.901Z,29.27
2022-09-26T16:10:23.360Z,23.75
2022-09-26T16:12:53.337Z,28.30
2022-09-26T16:15:27.974Z,27.85
2022-09-26T16:17:58.292Z,26.98
2022-09-26T16:20:29.345Z,30.38
2022-09-26T16:23:04.145Z,33.03
2022-09-26T16:25:35.954Z,29.02
2022-09-26T16:28:44.714Z,32.13
2022-09-26T16:31:24.506Z,34.03
2022-09-26T16:33:54.736Z,31.17
2022-09-26T16:36:24.893Z,37.08
2022-09-26T16:39:00.690Z,31.40
2022-09-26T16:44:28.786Z,34.75
2022-09-26T16:47:01.902Z,34.55
2022-09-26T16:49:34.574Z,30.35
2022-09-26T16:52:27.367Z,35.63
2022-09-26T16:54:58.001Z,29.38
2022-09-26T16:57:28.913Z,28.83
2022-09-26T17:00:15.153Z,37.55
2022-09-26T17:02:43.807Z,26.38
2022-09-26T17:05:18.807Z,26.77
2022-09-26T17:07:48.366Z,33.85
2022-09-26T17:10:19.512Z,28.10
2022-09-26T17:12:50.553Z,27.33
2022-09-26T17:15:22.801Z,30.40
2022-09-26T17:17:53.539Z,33.80
2022-09-26T17:20:22.789Z,29.02
2022-09-26T17:22:51.370Z,28.60
2022-09-26T17:25:23.635Z,32.15
2022-09-26T17:27:54.977Z,28.30
2022-09-26T17:30:23.445Z,34.97
2022-09-26T17:32:54.271Z,29.25
2022-09-26T17:35:26.156Z,35.28
2022-09-26T17:37:54.617Z,34.15
2022-09-26T17:40:26.335Z,34.67
2022-09-26T17:42:56.915Z,29.52
2022-09-26T17:45:29.988Z,34.63
2022-09-26T17:48:00.469Z,26.92
2022-09-26T17:50:31.296Z,39.33
2022-09-26T17:53:01.756Z,31.90
2022-09-26T17:55:31.985Z,32.58
2022-09-26T17:58:00.489Z,42.22
2022-09-26T18:00:38.909Z,39.90
2022-09-26T18:03:13.531Z,36.40
2022-09-26T18:05:45.642Z,35.95
2022-09-26T18:08:23.428Z,34.55
2022-09-26T18:10:56.933Z,35.08
2022-09-26T18:13:28.055Z,36.17
2022-09-26T18:15:58.646Z,37.65
2022-09-26T18:18:29.409Z,40.30
2022-09-26T18:21:03.552Z,32.88
2022-09-26T18:26:09.154Z,35.67
2022-09-26T18:28:38.854Z,36.22
2022-09-26T18:31:10.474Z,43.78
2022-09-26T18:33:38.539Z,37.58
2022-09-26T18:36:07.090Z,40.10
2022-09-26T18:38:35.684Z,39.90
2022-09-26T18:41:06.963Z,41.97
2022-09-26T18:43:42.406Z,43.58
2022-09-26T18:46:13.366Z,42.42
2022-09-26T18:48:41.759Z,43.95
2022-09-26T18:51:12.124Z,43.22
2022-09-26T18:53:41.074Z,39.05
2022-09-26T18:56:27.919Z,44.00
2022-09-26T18:58:57.754Z,42.45
2022-09-26T19:01:29.963Z,45.97
2022-09-26T19:04:00.634Z,49.08
2022-09-26T19:06:32.235Z,44.25
2022-09-26T19:09:03.079Z,44.78
2022-09-26T19:11:34.706Z,41.58
2022-09-26T19:14:13.719Z,50.15
2022-09-26T19:16:42.302Z,42.88
2022-09-26T19:19:10.696Z,46.35
2022-09-26T19:21:40.927Z,46.40
2022-09-26T19:24:20.371Z,41.53
2022-09-26T19:26:52.817Z,45.80
2022-09-26T19:29:29.633Z,42.78
2022-09-26T19:31:58.142Z,50.92
2022-09-26T19:34:30.371Z,52.40
2022-09-26T19:37:03.180Z,45.55
2022-09-26T19:39:31.740Z,46.30
2022-09-26T19:41:59.824Z,49.35
2022-09-26T19:44:30.261Z,49.50
2022-09-26T19:47:00.620Z,55.90
2022-09-26T19:49:32.136Z,50.60
2022-09-26T19:52:01.175Z,49.08
2022-09-26T19:54:29.977Z,54.13
2022-09-26T19:56:58.802Z,53.70
2022-09-26T19:59:27.802Z,53.80
2022-09-26T20:01:57.518Z,49.03
2022-09-26T20:04:25.919Z,51.83
2022-09-26T20:06:54.242Z,49.25
2022-09-26T20:09:22.279Z,57.08
2022-09-26T20:11:50.559Z,63.83
2022-09-26T20:14:27.543Z,58.63
2022-09-26T20:16:59.716Z,56.65
2022-09-26T20:19:37.502Z,53.45
2022-09-26T20:22:08.831Z,70.47
2022-09-26T20:24:39.501Z,57.78
2022-09-26T20:27:09.361Z,59.42
2022-09-26T20:29:51.510Z,64.00
2022-09-26T20:32:21.107Z,60.88
2022-09-26T20:34:49.497Z,61.83
2022-09-26T20:37:19.757Z,70.85
2022-09-26T20:39:48.079Z,71.53
2022-09-26T20:42:19.961Z,59.13
2022-09-26T20:44:51.161Z,73.95
2022-09-26T20:47:22.852Z,67.20
2022-09-26T20:49:55.238Z,69.28
2022-09-26T20:52:25.070Z,64.50
2022-09-26T20:54:53.680Z,58.33
2022-09-26T20:57:22.318Z,65.20
2022-09-26T20:59:51.381Z,68.88
2022-09-26T21:02:28.419Z,60.78
2022-09-26T21:04:57.747Z,64.65
2022-09-26T21:07:26.141Z,53.65
2022-09-26T21:09:54.472Z,63.38
2022-09-26T21:12:22.523Z,69.38
2022-09-26T21:14:51.727Z,70.43
2022-09-26T21:17:22.413Z,64.95
2022-09-26T21:19:52.233Z,60.90
2022-09-26T21:22:43.521Z,61.03
2022-09-26T21:25:16.622Z,61.22
2022-09-26T21:27:46.081Z,57.72
2022-09-26T21:30:15.742Z,67.55
2022-09-26T21:32:47.792Z,61.35
2022-09-26T21:35:19.337Z,61.30
2022-09-26T21:37:52.255Z,68.43
2022-09-26T21:40:21.315Z,71.95
2022-09-26T21:42:53.985Z,66.30
2022-09-26T21:45:27.224Z,59.72
2022-09-26T21:47:56.243Z,72.82
2022-09-26T21:50:27.534Z,64.95
2022-09-26T21:53:00.112Z,65.65
2022-09-26T21:55:32.921Z,68.47
2022-09-26T21:58:06.091Z,67.32
2022-09-26T22:00:34.124Z,73.28
2022-09-26T22:03:02.279Z,69.93
2022-09-26T22:05:32.009Z,73.85
2022-09-26T22:08:00.353Z,64.45
2022-09-26T22:10:29.537Z,60.97
2022-09-26T22:12:57.719Z,65.60
2022-09-26T22:15:25.892Z,62.17
2022-09-26T22:17:54.884Z,65.70
2022-09-26T22:20:23.327Z,62.20
2022-09-26T22:22:52.881Z,68.45
2022-09-26T22:25:21.225Z,70.68
2022-09-26T22:27:49.349Z,58.47
2022-09-26T22:30:18.608Z,61.78
2022-09-26T22:32:46.877Z,53.47
2022-09-26T22:35:15.075Z,53.55
2022-09-26T22:37:43.251Z,56.40
2022-09-26T22:40:12.896Z,65.22
2022-09-26T22:42:41.024Z,60.85
2022-09-26T22:45:10.252Z,68.32
2022-09-26T22:47:38.677Z,60.38
2022-09-26T22:50:07.367Z,67.70
2022-09-26T22:52:35.635Z,59.70
2022-09-26T22:55:03.729Z,73.90
2022-09-26T22:57:33.195Z,58.60
2022-09-26T23:00:01.859Z,57.92
2022-09-26T23:02:30.077Z,50.90
2022-09-26T23:04:58.127Z,61.53
2022-09-26T23:07:26.645Z,64.80
2022-09-26T23:09:54.674Z,55.30
2022-09-26T23:12:23.040Z,57.00
2022-09-26T23:14:52.627Z,65.40
2022-09-26T23:17:20.734Z,49.42
2022-09-26T23:19:48.714Z,52.78
2022-09-26T23:22:17.847Z,67.50
2022-09-26T23:24:45.925Z,60.88
2022-09-26T23:27:14.347Z,58.97
2022-09-26T23:29:42.778Z,51.47
2022-09-26T23:32:12.253Z,60.47
2022-09-26T23:34:40.295Z,54.03
2022-09-26T23:37:09.103Z,57.45
2022-09-26T23:39:37.190Z,57.92
2022-09-26T23:42:05.896Z,59.40
2022-09-26T23:44:35.013Z,55.60
2022-09-26T23:47:04.270Z,56.78
2022-09-26T23:49:33.709Z,68.60
2022-09-26T23:52:02.728Z,60.33
2022-09-26T23:54:30.766Z,63.92
2022-09-26T23:56:59.041Z,58.58
2022-09-26T23:59:27.200Z,68.43
